Weather at Seton Medical Center H-4 Heliport

Public forecast

Using degrees Fahrenheit for public forecast. Weather courtesy of forecast.io.

Closest aviation weather report (METAR) to Seton Medical Center H-4 Heliport

Closest report is Austin Bergstrom International Airport, 7.7 nm (14.3 km) SSE. Retrieved 2021/02/27 00:53 UTC (2 hours ago):

KAUS 270053Z 34004KT 8SM FEW013 OVC024 14/11 A2990 RMK AO2 SLP123 T01390106

Closest aviation forecast (TAF) to Seton Medical Center H-4 Heliport

Forecast is more than 6 hours old.

Closest forecast is Austin Bergstrom International Airport, 7.7 nm (14.3 km) SSE. Retrieved 2021/02/26 18:22 UTC (8 hours ago):

TAF KAUS 261720Z 2618/2724 34005KT P6SM OVC015 FM262200 VRB04KT P6SM BKN025 FM270400 14005KT 6SM BR OVC015 FM270700 16004KT 3SM BR OVC008 FM271500 17010KT 6SM BR OVC020 FM272000 18013KT P6SM BKN035